createdAt,value
2022-12-25T00:01:13.401Z,20.60
2022-12-25T00:03:40.454Z,28.60
2022-12-25T00:06:07.512Z,24.23
2022-12-25T00:08:35.270Z,27.13
2022-12-25T00:11:05.515Z,21.65
2022-12-25T00:13:32.685Z,27.40
2022-12-25T00:15:59.941Z,21.23
2022-12-25T00:18:27.351Z,20.60
2022-12-25T00:21:05.242Z,24.77
2022-12-25T00:23:32.652Z,21.67
2022-12-25T00:25:59.445Z,19.80
2022-12-25T00:28:26.416Z,19.85
2022-12-25T00:30:53.276Z,20.85
2022-12-25T00:33:20.217Z,19.52
2022-12-25T00:35:58.591Z,21.65
2022-12-25T00:38:25.821Z,20.95
2022-12-25T00:40:52.991Z,18.10
2022-12-25T00:43:20.575Z,19.42
2022-12-25T00:46:01.881Z,16.38
2022-12-25T00:48:29.427Z,17.13
2022-12-25T00:50:57.662Z,21.55
2022-12-25T00:53:26.113Z,19.33
2022-12-25T00:56:05.047Z,21.63
2022-12-25T00:58:34.434Z,20.27
2022-12-25T01:01:02.894Z,19.35
2022-12-25T01:03:30.291Z,22.73
2022-12-25T01:05:59.345Z,23.70
2022-12-25T01:08:29.261Z,22.42
2022-12-25T01:11:05.014Z,19.70
2022-12-25T01:13:34.921Z,21.70
2022-12-25T01:16:11.675Z,22.33
2022-12-25T01:18:38.844Z,24.90
2022-12-25T01:21:07.448Z,24.65
2022-12-25T01:23:34.673Z,21.95
2022-12-25T01:26:10.216Z,23.05
2022-12-25T01:28:37.717Z,22.65
2022-12-25T01:31:08.658Z,22.42
2022-12-25T01:33:35.609Z,18.50
2022-12-25T01:36:02.533Z,24.27
2022-12-25T01:38:29.482Z,18.48
2022-12-25T01:40:56.297Z,18.92
2022-12-25T01:43:29.306Z,25.73
2022-12-25T01:45:57.684Z,25.85
2022-12-25T01:48:37.336Z,23.58
2022-12-25T01:51:12.573Z,34.85
2022-12-25T01:53:39.732Z,22.80
2022-12-25T01:56:08.993Z,25.52
2022-12-25T01:58:36.598Z,24.23
2022-12-25T02:01:06.586Z,19.80
2022-12-25T02:03:33.614Z,28.38
2022-12-25T02:06:01.952Z,26.27
2022-12-25T02:08:28.889Z,29.95
2022-12-25T02:10:55.800Z,29.70
2022-12-25T02:13:22.857Z,33.45
2022-12-25T02:16:15.667Z,30.08
2022-12-25T02:18:54.676Z,21.33
2022-12-25T02:22:14.534Z,22.10
2022-12-25T02:25:01.727Z,31.13
2022-12-25T02:27:42.779Z,23.55
2022-12-25T02:30:11.542Z,28.10
2022-12-25T02:33:17.295Z,26.17
2022-12-25T02:35:48.006Z,25.63
2022-12-25T02:38:28.614Z,34.85
2022-12-25T02:40:59.139Z,25.83
2022-12-25T02:43:52.451Z,30.98
2022-12-25T02:46:41.743Z,28.53
2022-12-25T02:49:35.666Z,29.73
2022-12-25T02:52:28.701Z,33.92
2022-12-25T02:55:29.671Z,33.90
2022-12-25T02:58:20.609Z,35.47
2022-12-25T03:01:10.699Z,32.55
2022-12-25T03:04:00.615Z,33.95
2022-12-25T03:06:44.117Z,30.45
2022-12-25T03:09:40.977Z,33.03
2022-12-25T03:12:35.693Z,38.38
2022-12-25T03:15:22.512Z,27.30
2022-12-25T03:17:49.413Z,36.63
2022-12-25T03:20:34.640Z,38.08
2022-12-25T03:23:20.653Z,32.30
2022-12-25T03:26:05.905Z,30.38
2022-12-25T03:28:32.789Z,34.15
2022-12-25T03:31:14.368Z,30.80
2022-12-25T03:34:23.286Z,25.20
2022-12-25T03:37:20.049Z,27.58
2022-12-25T03:39:57.590Z,31.52
2022-12-25T03:43:02.284Z,25.70
2022-12-25T03:45:58.729Z,30.35
2022-12-25T03:48:46.257Z,29.40
2022-12-25T03:51:36.811Z,31.17
2022-12-25T03:54:26.516Z,29.27
2022-12-25T03:57:11.827Z,32.67
2022-12-25T03:59:58.165Z,34.70
2022-12-25T04:02:43.444Z,27.23
2022-12-25T04:05:28.962Z,31.23
2022-12-25T04:08:14.241Z,33.58
2022-12-25T04:10:59.626Z,33.17
2022-12-25T04:13:46.168Z,25.55
2022-12-25T04:16:31.814Z,30.67
2022-12-25T04:19:17.097Z,29.30
2022-12-25T04:22:02.702Z,28.27
2022-12-25T04:25:01.706Z,25.58
2022-12-25T04:27:47.239Z,37.85
2022-12-25T04:30:32.496Z,28.50
2022-12-25T04:33:18.701Z,29.23
2022-12-25T04:36:21.248Z,27.98
2022-12-25T04:38:48.072Z,27.77
2022-12-25T04:41:15.149Z,28.35
2022-12-25T04:43:42.100Z,31.42
2022-12-25T04:46:08.953Z,26.67
2022-12-25T04:48:37.046Z,29.25
2022-12-25T04:51:19.097Z,21.83
2022-12-25T04:53:47.539Z,26.30
2022-12-25T04:56:15.322Z,24.40
2022-12-25T04:58:42.895Z,33.13
2022-12-25T05:01:10.635Z,26.33
2022-12-25T05:03:38.342Z,27.25
2022-12-25T05:06:06.188Z,25.88
2022-12-25T05:08:35.044Z,27.20
2022-12-25T05:11:09.889Z,29.52
2022-12-25T05:13:37.116Z,33.20
2022-12-25T05:16:16.569Z,29.17
2022-12-25T05:18:43.747Z,27.80
2022-12-25T05:21:14.134Z,32.15
2022-12-25T05:23:48.564Z,27.35
2022-12-25T05:26:17.552Z,28.55
2022-12-25T05:28:44.713Z,30.75
2022-12-25T05:31:11.904Z,27.80
2022-12-25T05:33:38.824Z,30.35
2022-12-25T05:36:07.641Z,27.20
2022-12-25T05:38:35.713Z,24.80
2022-12-25T05:41:02.916Z,24.92
2022-12-25T05:43:30.380Z,25.15
2022-12-25T05:45:57.415Z,23.88
2022-12-25T05:48:24.346Z,29.48
2022-12-25T05:50:51.249Z,23.17
2022-12-25T05:53:18.138Z,23.15
2022-12-25T05:55:44.975Z,30.92
2022-12-25T05:58:13.340Z,21.80
2022-12-25T06:00:41.047Z,24.35
2022-12-25T06:03:08.031Z,24.75
2022-12-25T06:05:37.814Z,27.75
2022-12-25T06:08:04.703Z,23.50
2022-12-25T06:10:31.534Z,28.98
2022-12-25T06:12:58.365Z,20.67
2022-12-25T06:15:25.400Z,26.80
2022-12-25T06:17:52.257Z,24.85
2022-12-25T06:20:19.181Z,19.52
2022-12-25T06:22:46.062Z,27.40
2022-12-25T06:25:13.357Z,27.33
2022-12-25T06:27:40.200Z,27.08
2022-12-25T06:30:07.727Z,25.30
2022-12-25T06:32:34.510Z,28.35
2022-12-25T06:35:01.383Z,21.30
2022-12-25T06:37:29.207Z,31.13
2022-12-25T06:39:56.070Z,31.13
2022-12-25T06:42:22.875Z,23.60
2022-12-25T06:44:51.014Z,27.73
2022-12-25T06:47:18.212Z,26.67
2022-12-25T06:49:45.069Z,28.55
2022-12-25T06:52:11.883Z,28.38
2022-12-25T06:54:38.698Z,28.52
2022-12-25T06:57:05.520Z,28.60
2022-12-25T06:59:32.564Z,27.65
2022-12-25T07:01:59.997Z,26.38
2022-12-25T07:04:32.233Z,28.88
2022-12-25T07:07:06.181Z,31.38
2022-12-25T07:09:36.042Z,31.02
2022-12-25T07:12:13.711Z,31.08
2022-12-25T07:14:40.846Z,26.33
2022-12-25T07:17:07.698Z,28.15
2022-12-25T07:19:36.139Z,30.50
2022-12-25T07:22:06.547Z,33.50
2022-12-25T07:24:33.407Z,28.83
2022-12-25T07:27:00.512Z,36.63
2022-12-25T07:29:28.540Z,27.40
2022-12-25T07:31:55.520Z,29.80
2022-12-25T07:34:23.922Z,24.80
2022-12-25T07:36:50.868Z,25.40
2022-12-25T07:39:17.820Z,29.98
2022-12-25T07:41:44.740Z,28.92
2022-12-25T07:44:15.679Z,27.92
2022-12-25T07:46:43.091Z,32.67
2022-12-25T07:49:11.162Z,25.88
2022-12-25T07:51:38.310Z,25.13
2022-12-25T07:54:05.264Z,35.03
2022-12-25T07:56:33.383Z,26.98
2022-12-25T07:59:00.540Z,29.20
2022-12-25T08:01:28.108Z,29.38
2022-12-25T08:03:57.587Z,26.35
2022-12-25T08:06:29.919Z,29.13
2022-12-25T08:09:04.376Z,33.35
2022-12-25T08:11:31.237Z,30.08
2022-12-25T08:13:58.093Z,25.77
2022-12-25T08:16:25.093Z,25.90
2022-12-25T08:18:52.961Z,30.45
2022-12-25T08:21:19.856Z,27.95
2022-12-25T08:23:48.231Z,30.88
2022-12-25T08:26:18.495Z,30.83
2022-12-25T08:28:46.300Z,29.92
2022-12-25T08:31:19.838Z,32.55
2022-12-25T08:36:14.622Z,28.05
2022-12-25T08:38:43.208Z,27.08
2022-12-25T08:41:11.652Z,32.47
2022-12-25T08:43:38.737Z,31.90
2022-12-25T08:46:07.491Z,29.38
2022-12-25T08:48:36.867Z,34.95
2022-12-25T08:51:04.727Z,32.28
2022-12-25T08:53:31.569Z,33.15
2022-12-25T08:56:06.190Z,30.85
2022-12-25T08:58:35.594Z,24.75
2022-12-25T09:01:02.595Z,39.47
2022-12-25T09:03:32.388Z,38.90
2022-12-25T09:06:11.322Z,35.10
2022-12-25T09:08:44.199Z,32.28
2022-12-25T09:11:16.305Z,32.15
2022-12-25T09:13:43.621Z,41.95
2022-12-25T09:16:13.658Z,41.55
2022-12-25T09:18:41.537Z,23.23
2022-12-25T09:21:11.602Z,27.38
2022-12-25T09:23:38.479Z,41.63
2022-12-25T09:26:07.780Z,26.20
2022-12-25T09:28:35.912Z,26.77
2022-12-25T09:31:03.073Z,26.63
2022-12-25T09:33:30.057Z,39.13
2022-12-25T09:35:59.059Z,32.90
2022-12-25T09:39:04.903Z,31.95
2022-12-25T09:41:56.679Z,29.70
2022-12-25T09:44:33.917Z,29.13
2022-12-25T09:47:12.017Z,29.85
2022-12-25T09:50:02.728Z,26.98
2022-12-25T09:52:42.625Z,26.58
2022-12-25T09:55:20.048Z,25.15
2022-12-25T09:57:54.256Z,34.42
2022-12-25T10:03:14.487Z,31.80
2022-12-25T10:06:12.461Z,27.88
2022-12-25T10:08:43.871Z,28.60
2022-12-25T10:11:19.026Z,36.83
2022-12-25T10:14:14.054Z,33.05
2022-12-25T10:16:43.689Z,23.85
2022-12-25T10:19:15.930Z,24.30
2022-12-25T10:21:42.910Z,25.05
2022-12-25T10:24:30.875Z,24.67
2022-12-25T10:26:57.740Z,21.65
2022-12-25T10:29:30.571Z,26.20
2022-12-25T10:31:57.574Z,19.88
2022-12-25T10:34:24.562Z,26.23
2022-12-25T10:36:52.667Z,17.20
2022-12-25T10:39:26.372Z,19.58
2022-12-25T10:42:08.458Z,25.23
2022-12-25T10:44:36.049Z,19.42
2022-12-25T10:47:04.791Z,15.57
2022-12-25T10:49:51.815Z,23.20
2022-12-25T10:52:27.337Z,22.70
2022-12-25T10:54:54.711Z,14.27
2022-12-25T10:57:24.101Z,18.42
2022-12-25T10:59:56.451Z,18.40
2022-12-25T11:02:50.092Z,18.65
2022-12-25T11:05:28.247Z,17.83
2022-12-25T11:08:19.468Z,16.92
2022-12-25T11:10:56.929Z,15.38
2022-12-25T11:13:27.807Z,14.77
2022-12-25T11:16:05.931Z,18.08
2022-12-25T11:19:10.438Z,20.05
2022-12-25T11:21:37.585Z,18.80
2022-12-25T11:24:07.077Z,14.45
2022-12-25T11:26:51.470Z,15.43
2022-12-25T11:29:40.541Z,22.67
2022-12-25T11:32:19.293Z,16.42
2022-12-25T11:34:48.612Z,17.15
2022-12-25T11:37:27.344Z,15.48
2022-12-25T11:39:54.433Z,16.20
2022-12-25T11:42:32.223Z,14.52
2022-12-25T11:45:35.133Z,14.02
2022-12-25T11:48:26.170Z,12.15
2022-12-25T11:50:59.822Z,12.13
2022-12-25T11:53:35.053Z,12.52
2022-12-25T11:56:24.299Z,10.93
2022-12-25T11:58:53.182Z,8.70
2022-12-25T12:01:42.988Z,9.93
2022-12-25T12:04:29.498Z,10.07
2022-12-25T12:07:23.417Z,9.07
2022-12-25T12:10:15.992Z,11.32
2022-12-25T12:13:19.264Z,9.85
2022-12-25T12:15:48.524Z,9.23
2022-12-25T12:18:27.648Z,9.63
2022-12-25T12:20:59.969Z,9.27
2022-12-25T12:23:28.901Z,8.45
2022-12-25T12:25:56.720Z,9.13
2022-12-25T12:28:27.597Z,9.50
2022-12-25T12:31:06.825Z,9.73
2022-12-25T12:33:40.209Z,9.43
2022-12-25T12:36:12.703Z,8.18
2022-12-25T12:38:43.587Z,9.02
2022-12-25T12:41:14.234Z,8.18
2022-12-25T12:43:52.931Z,9.27
2022-12-25T12:46:31.370Z,8.82
2022-12-25T12:49:27.500Z,8.00
2022-12-25T12:52:25.049Z,8.10
2022-12-25T12:55:15.080Z,8.85
2022-12-25T12:57:43.009Z,8.93
2022-12-25T13:00:17.543Z,9.40
2022-12-25T13:03:12.602Z,9.48
2022-12-25T13:05:46.133Z,10.25
2022-12-25T13:11:21.249Z,10.73
2022-12-25T13:13:51.508Z,11.23
2022-12-25T13:16:49.806Z,11.07
2022-12-25T13:19:23.159Z,8.68
2022-12-25T13:21:57.077Z,11.85
2022-12-25T13:24:29.522Z,10.88
2022-12-25T13:26:56.466Z,10.48
2022-12-25T13:29:35.683Z,10.77
2022-12-25T13:32:05.315Z,12.77
2022-12-25T13:34:39.361Z,12.98
2022-12-25T13:37:13.356Z,11.57
2022-12-25T13:40:00.533Z,11.55
2022-12-25T13:42:36.461Z,10.00
2022-12-25T13:45:21.713Z,10.45
2022-12-25T13:47:54.937Z,10.93
2022-12-25T13:50:29.661Z,11.75
2022-12-25T13:52:58.267Z,10.68
2022-12-25T13:55:28.036Z,11.65
2022-12-25T13:57:59.253Z,11.25
2022-12-25T14:00:33.788Z,11.70
2022-12-25T14:03:00.991Z,11.40
2022-12-25T14:05:42.727Z,13.02
2022-12-25T14:08:22.780Z,10.15
2022-12-25T14:10:52.484Z,11.20
2022-12-25T14:13:23.330Z,11.27
2022-12-25T14:15:51.352Z,10.60
2022-12-25T14:18:20.467Z,10.32
2022-12-25T14:21:01.352Z,10.60
2022-12-25T14:23:49.665Z,9.32
2022-12-25T14:26:31.957Z,10.63
2022-12-25T14:29:05.888Z,11.73
2022-12-25T14:31:33.932Z,10.52
2022-12-25T14:34:03.020Z,10.88
2022-12-25T14:36:32.095Z,10.73
2022-12-25T14:39:01.312Z,10.75
2022-12-25T14:41:42.112Z,10.13
2022-12-25T14:44:33.333Z,11.35
2022-12-25T14:47:05.431Z,10.00
2022-12-25T14:49:32.726Z,9.07
2022-12-25T14:51:59.622Z,10.02
2022-12-25T14:54:27.276Z,9.93
2022-12-25T14:56:56.275Z,11.68
2022-12-25T14:59:26.925Z,11.20
2022-12-25T15:02:01.414Z,11.75
2022-12-25T15:04:29.569Z,10.77
2022-12-25T15:07:00.269Z,10.95
2022-12-25T15:09:30.035Z,11.10
2022-12-25T15:11:57.145Z,9.50
2022-12-25T15:14:25.495Z,11.85
2022-12-25T15:17:01.504Z,10.45
2022-12-25T15:19:37.340Z,9.00
2022-12-25T15:22:05.729Z,10.13
2022-12-25T15:24:32.772Z,11.90
2022-12-25T15:27:00.620Z,12.80
2022-12-25T15:32:21.940Z,13.00
2022-12-25T15:34:49.960Z,12.47
2022-12-25T15:37:18.138Z,13.00
2022-12-25T15:39:45.758Z,13.35
2022-12-25T15:42:22.946Z,13.10
2022-12-25T15:44:50.516Z,13.02
2022-12-25T15:47:20.236Z,15.27
2022-12-25T15:49:47.208Z,13.05
2022-12-25T15:52:16.711Z,13.75
2022-12-25T15:54:43.866Z,13.88
2022-12-25T15:57:18.404Z,13.32
2022-12-25T15:59:45.322Z,13.98
2022-12-25T16:02:20.829Z,13.85
2022-12-25T16:04:48.843Z,12.82
2022-12-25T16:07:18.281Z,16.38
2022-12-25T16:09:45.814Z,13.77
2022-12-25T16:12:12.870Z,14.38
2022-12-25T16:14:39.681Z,13.63
2022-12-25T16:17:06.570Z,13.45
2022-12-25T16:19:33.653Z,14.50
2022-12-25T16:22:00.672Z,13.95
2022-12-25T16:24:27.518Z,15.10
2022-12-25T16:26:54.339Z,15.30
2022-12-25T16:29:21.163Z,13.98
2022-12-25T16:31:48.113Z,16.00
2022-12-25T16:34:15.086Z,15.57
2022-12-25T16:36:41.968Z,16.48
2022-12-25T16:39:08.871Z,14.60
2022-12-25T16:41:35.764Z,14.75
2022-12-25T16:44:09.544Z,18.50
2022-12-25T16:46:37.749Z,14.95
2022-12-25T16:49:05.201Z,16.73
2022-12-25T16:51:32.215Z,18.23
2022-12-25T16:53:59.015Z,17.13
2022-12-25T16:56:28.376Z,21.83
2022-12-25T16:58:57.443Z,25.17
2022-12-25T17:01:25.488Z,24.27
2022-12-25T17:03:52.641Z,19.40
2022-12-25T17:06:23.246Z,19.33
2022-12-25T17:08:51.954Z,19.10
2022-12-25T17:11:24.221Z,19.95
2022-12-25T17:13:51.129Z,17.40
2022-12-25T17:16:21.168Z,18.33
2022-12-25T17:18:48.114Z,19.75
2022-12-25T17:21:14.957Z,19.58
2022-12-25T17:23:41.983Z,16.10
2022-12-25T17:26:08.823Z,20.20
2022-12-25T17:28:35.706Z,19.48
2022-12-25T17:31:08.193Z,18.33
2022-12-25T17:33:39.927Z,19.23
2022-12-25T17:36:10.946Z,19.52
2022-12-25T17:38:38.403Z,17.00
2022-12-25T17:41:07.520Z,18.08
2022-12-25T17:43:37.916Z,20.38
2022-12-25T17:46:06.971Z,21.27
2022-12-25T17:48:36.207Z,17.10
2022-12-25T17:51:09.615Z,22.42
2022-12-25T17:53:38.401Z,23.13
2022-12-25T17:56:05.550Z,27.73
2022-12-25T17:58:32.439Z,29.98
2022-12-25T18:01:12.075Z,30.70
2022-12-25T18:03:39.836Z,28.10
2022-12-25T18:06:08.271Z,37.22
2022-12-25T18:08:39.202Z,31.10
2022-12-25T18:11:19.508Z,31.75
2022-12-25T18:13:49.867Z,39.42
2022-12-25T18:16:17.371Z,38.00
2022-12-25T18:18:51.980Z,43.17
2022-12-25T18:21:20.875Z,42.35
2022-12-25T18:23:48.207Z,40.90
2022-12-25T18:26:15.399Z,34.60
2022-12-25T18:28:42.711Z,36.42
2022-12-25T18:31:21.608Z,40.78
2022-12-25T18:33:48.715Z,33.60
2022-12-25T18:36:17.811Z,33.90
2022-12-25T18:38:45.938Z,37.25
2022-12-25T18:41:12.768Z,40.22
2022-12-25T18:43:52.918Z,37.95
2022-12-25T18:46:24.591Z,49.15
2022-12-25T18:48:52.561Z,39.78
2022-12-25T18:51:19.442Z,34.20
2022-12-25T18:53:46.353Z,36.22
2022-12-25T18:56:15.661Z,40.30
2022-12-25T18:58:43.475Z,39.13
2022-12-25T19:01:17.350Z,40.28
2022-12-25T19:03:45.002Z,33.47
2022-12-25T19:06:24.904Z,33.05
2022-12-25T19:08:52.051Z,33.53
2022-12-25T19:11:20.194Z,31.73
2022-12-25T19:13:47.654Z,33.22
2022-12-25T19:16:15.463Z,39.92
2022-12-25T19:18:43.675Z,34.92
2022-12-25T19:21:11.170Z,39.85
2022-12-25T19:23:38.664Z,33.92
2022-12-25T19:26:07.334Z,31.17
2022-12-25T19:28:34.988Z,39.70
2022-12-25T19:31:07.367Z,32.88
2022-12-25T19:33:35.600Z,39.28
2022-12-25T19:36:03.848Z,32.47
2022-12-25T19:38:30.834Z,37.63
2022-12-25T19:41:00.937Z,35.63
2022-12-25T19:43:34.315Z,37.05
2022-12-25T19:46:02.127Z,35.90
2022-12-25T19:48:30.066Z,31.77
2022-12-25T19:50:57.239Z,30.70
2022-12-25T19:53:24.371Z,29.38
2022-12-25T19:55:52.760Z,33.25
2022-12-25T19:58:23.761Z,33.05
2022-12-25T20:01:02.006Z,33.60
2022-12-25T20:03:28.977Z,36.78
2022-12-25T20:05:56.570Z,28.27
2022-12-25T20:08:24.190Z,27.70
2022-12-25T20:10:51.336Z,38.40
2022-12-25T20:13:18.626Z,34.58
2022-12-25T20:15:45.789Z,41.83
2022-12-25T20:18:12.974Z,44.47
2022-12-25T20:20:39.960Z,39.40
2022-12-25T20:23:07.050Z,36.70
2022-12-25T20:25:33.969Z,38.85
2022-12-25T20:28:04.968Z,49.47
2022-12-25T20:30:31.842Z,50.05
2022-12-25T20:32:58.781Z,43.38
2022-12-25T20:35:25.671Z,47.15
2022-12-25T20:37:53.786Z,45.67
2022-12-25T20:40:20.598Z,45.28
2022-12-25T20:42:47.393Z,41.83
2022-12-25T20:45:14.331Z,44.88
2022-12-25T20:47:46.417Z,37.53
2022-12-25T20:50:13.518Z,40.60
2022-12-25T20:52:40.423Z,35.80
2022-12-25T20:55:07.528Z,46.33
2022-12-25T20:57:35.643Z,42.15
2022-12-25T21:00:03.621Z,34.70
2022-12-25T21:02:34.569Z,45.78
2022-12-25T21:05:07.880Z,38.05
2022-12-25T21:07:35.993Z,44.28
2022-12-25T21:10:04.326Z,55.88
2022-12-25T21:12:31.176Z,41.08
2022-12-25T21:14:58.035Z,40.25
2022-12-25T21:17:27.161Z,39.05
2022-12-25T21:19:54.007Z,36.97
2022-12-25T21:22:20.869Z,36.53
2022-12-25T21:24:51.909Z,49.85
2022-12-25T21:27:18.810Z,43.90
2022-12-25T21:29:45.739Z,40.65
2022-12-25T21:32:31.097Z,41.30
2022-12-25T21:34:58.239Z,34.95
2022-12-25T21:37:25.253Z,48.15
2022-12-25T21:39:52.198Z,44.10
2022-12-25T21:42:19.112Z,30.83
2022-12-25T21:44:46.256Z,41.08
2022-12-25T21:47:13.209Z,45.70
2022-12-25T21:50:18.699Z,43.40
2022-12-25T21:52:45.647Z,45.20
2022-12-25T21:55:12.686Z,40.72
2022-12-25T21:58:09.545Z,50.00
2022-12-25T22:00:36.455Z,41.50
2022-12-25T22:03:03.872Z,39.58
2022-12-25T22:05:49.358Z,39.42
2022-12-25T22:08:16.738Z,40.95
2022-12-25T22:10:43.717Z,40.60
2022-12-25T22:13:29.007Z,42.50
2022-12-25T22:16:24.490Z,39.40
2022-12-25T22:19:11.043Z,40.40
2022-12-25T22:21:38.085Z,35.17
2022-12-25T22:24:07.158Z,44.53
2022-12-25T22:26:35.368Z,44.78
2022-12-25T22:29:06.074Z,39.67
2022-12-25T22:31:33.100Z,41.55
2022-12-25T22:34:00.116Z,36.45
2022-12-25T22:36:27.041Z,39.80
2022-12-25T22:38:59.806Z,45.33
2022-12-25T22:41:31.505Z,39.17
2022-12-25T22:44:17.031Z,33.90
2022-12-25T22:46:44.773Z,39.72
2022-12-25T22:49:13.158Z,39.30
2022-12-25T22:51:40.028Z,36.95
2022-12-25T22:54:06.958Z,38.38
2022-12-25T22:56:33.894Z,33.80
2022-12-25T22:59:01.151Z,38.58
2022-12-25T23:01:28.089Z,41.22
2022-12-25T23:03:55.304Z,40.95
2022-12-25T23:06:22.359Z,48.65
2022-12-25T23:08:50.623Z,36.45
2022-12-25T23:11:17.971Z,34.90
2022-12-25T23:14:03.346Z,42.15
2022-12-25T23:16:30.621Z,41.90
2022-12-25T23:19:16.864Z,39.22
2022-12-25T23:22:02.399Z,38.72
2022-12-25T23:24:47.973Z,35.80
2022-12-25T23:27:18.047Z,35.08
2022-12-25T23:29:45.837Z,36.08
2022-12-25T23:32:25.266Z,38.53
2022-12-25T23:34:52.708Z,45.30
2022-12-25T23:37:20.098Z,35.22
2022-12-25T23:39:47.471Z,44.58
2022-12-25T23:42:14.437Z,42.25
2022-12-25T23:44:41.600Z,36.58
2022-12-25T23:47:08.500Z,41.22
2022-12-25T23:50:13.244Z,35.58
2022-12-25T23:52:40.233Z,40.30
2022-12-25T23:55:08.557Z,40.75
2022-12-25T23:57:37.519Z,44.28
